Time;durP1;ratioP1;P1;durP2;ratioP2;P2;SDS_P1;SDS_P2;PMS_P1;PMS_P2;Temp;Humidity;BMP_temperature;BMP_pressure;BME280_temperature;BME280_humidity;BME280_pressure;Samples;Min_cycle;Max_cycle;Signal;HPM_P1;HPM_P2
2022/02/10 00:04:57;;;;;;;62.78;45.65;;;25.00;99.40;;;;;;4192302;28;20069;-66
2022/02/10 00:13:56;;;;;;;50.40;38.90;;;25.00;99.60;;;;;;4186882;28;20044;-64
2022/02/10 00:20:36;;;;;;;66.75;29.63;;;25.10;99.80;;;;;;4190896;28;20514;-63
2022/02/10 00:36:17;;;;;;;29.45;19.45;;;25.20;99.90;;;;;;4184746;28;20052;-64
2022/02/10 00:38:26;;;;;;;26.40;17.83;;;25.30;99.90;;;;;;4192073;28;20049;-64
2022/02/10 00:40:33;;;;;;;19.65;15.52;;;25.30;99.90;;;;;;4191646;28;20102;-65
2022/02/10 00:42:37;;;;;;;25.15;15.50;;;25.30;99.90;;;;;;4189711;28;20052;-65
2022/02/10 00:44:42;;;;;;;23.88;13.50;;;25.30;99.90;;;;;;4176927;28;20048;-65
2022/02/10 00:46:46;;;;;;;14.77;11.38;;;25.40;99.90;;;;;;4189720;28;20083;-65
2022/02/10 00:48:50;;;;;;;13.77;10.32;;;25.40;99.70;;;;;;4191466;28;20048;-65
2022/02/10 00:50:56;;;;;;;12.23;9.95;;;25.40;99.10;;;;;;4185548;28;20049;-65
2022/02/10 00:53:12;;;;;;;16.23;10.05;;;25.40;98.60;;;;;;4190702;28;20478;-65
2022/02/10 00:55:23;;;;;;;14.70;9.02;;;25.40;98.60;;;;;;4187680;28;20037;-65
2022/02/10 00:57:27;;;;;;;13.20;8.45;;;25.40;98.50;;;;;;4187135;28;20119;-65
2022/02/10 00:59:57;;;;;;;14.82;9.10;;;25.40;98.30;;;;;;4188618;28;20193;-65
2022/02/10 01:31:40;;;;;;;10.60;8.02;;;25.80;97.20;;;;;;4192878;28;20043;-66
2022/02/10 01:33:45;;;;;;;11.13;7.40;;;25.90;97.20;;;;;;4191713;28;20052;-65
2022/02/10 01:35:52;;;;;;;13.02;7.32;;;25.90;97.10;;;;;;4191830;28;20056;-65
2022/02/10 01:37:59;;;;;;;11.55;7.05;;;26.00;97.10;;;;;;4183490;28;20059;-66
2022/02/10 01:40:38;;;;;;;13.65;7.50;;;26.00;97.00;;;;;;4185818;28;20075;-66
2022/02/10 02:03:27;;;;;;;15.85;7.30;;;26.30;95.90;;;;;;4188661;28;20041;-65
2022/02/10 02:05:44;;;;;;;12.02;7.50;;;26.40;95.90;;;;;;4189979;28;20490;-65
2022/02/10 02:07:52;;;;;;;;;;;26.40;95.60;;;;;;4206436;28;20162;-67
2022/02/10 02:09:59;;;;;;;13.75;7.10;;;26.40;95.60;;;;;;4191897;28;19924;-66
2022/02/10 02:12:08;;;;;;;16.83;7.65;;;26.40;95.50;;;;;;4190900;28;20131;-66
2022/02/10 02:14:15;;;;;;;8.80;7.35;;;26.50;95.50;;;;;;4191970;28;20128;-67
2022/02/10 02:16:25;;;;;;;17.58;6.80;;;26.50;95.40;;;;;;4185322;28;20045;-65
2022/02/10 02:18:30;;;;;;;10.82;7.60;;;26.60;95.30;;;;;;4189105;28;20033;-66
2022/02/10 02:20:34;;;;;;;19.02;8.07;;;26.50;95.10;;;;;;4191615;28;20055;-66
2022/02/10 02:22:39;;;;;;;11.57;7.68;;;26.60;95.10;;;;;;4188919;28;20062;-66
2022/02/10 02:24:44;;;;;;;10.20;7.75;;;26.60;95.10;;;;;;4191856;28;20049;-66
2022/02/10 02:26:53;;;;;;;13.15;8.02;;;26.60;95.00;;;;;;4193029;28;20140;-66
2022/02/10 02:29:01;;;;;;;13.27;7.85;;;26.70;94.90;;;;;;4181636;28;20041;-66
2022/02/10 02:31:15;;;;;;;15.82;8.43;;;26.70;95.00;;;;;;4188469;28;20071;-66
2022/02/10 03:05:14;;;;;;;11.60;7.95;;;27.40;94.40;;;;;;4198506;28;20040;-66
2022/02/10 03:09:27;;;;;;;18.58;8.45;;;27.50;94.20;;;;;;4200024;28;20054;-64
2022/02/10 03:11:35;;;;;;;15.27;8.05;;;27.50;94.20;;;;;;4199541;28;20045;-66
2022/02/10 03:13:46;;;;;;;12.27;7.85;;;27.60;94.10;;;;;;4197917;28;20057;-65
2022/02/10 04:06:06;;;;;;;14.82;9.27;;;28.50;92.50;;;;;;4214183;28;20070;-65
2022/02/10 04:08:25;;;;;;;12.15;8.65;;;28.50;92.60;;;;;;4198557;28;20075;-64
2022/02/10 04:23:57;;;;;;;14.48;9.15;;;28.80;92.70;;;;;;4194238;28;20452;-65
2022/02/10 05:01:40;;;;;;;19.17;13.18;;;29.40;91.60;;;;;;4197351;28;20061;-65
2022/02/10 05:06:25;;;;;;;18.55;12.98;;;29.50;91.80;;;;;;4196290;28;20095;-65
2022/02/10 05:24:12;;;;;;;18.15;13.88;;;29.90;91.20;;;;;;4197000;28;20045;-67
2022/02/10 05:37:36;;;;;;;19.50;12.48;;;30.10;90.90;;;;;;4196151;28;20044;-65
2022/02/10 05:39:44;;;;;;;17.73;12.82;;;30.00;91.00;;;;;;4197562;28;20498;-65
2022/02/10 05:51:37;;;;;;;16.42;12.23;;;30.30;90.40;;;;;;4197433;28;20098;-64
2022/02/10 05:55:39;;;;;;;18.40;12.82;;;30.40;90.40;;;;;;4196619;28;20058;-65
2022/02/10 05:57:54;;;;;;;20.13;12.88;;;30.40;90.30;;;;;;4194016;28;20064;-66
2022/02/10 07:12:03;;;;;;;15.45;11.13;;;31.30;86.10;;;;;;4195209;28;20040;-65
2022/02/10 08:49:53;;;;;;;15.15;13.15;;;31.70;83.10;;;;;;4195674;28;20052;-66
2022/02/10 08:56:50;;;;;;;16.10;13.65;;;31.70;83.30;;;;;;4194929;28;20561;-65
2022/02/10 09:05:56;;;;;;;17.25;13.55;;;31.70;83.00;;;;;;4194964;28;20462;-66
2022/02/10 10:02:35;;;;;;;25.33;17.15;;;31.30;82.70;;;;;;4194334;28;20079;-67
2022/02/10 10:05:04;;;;;;;26.05;16.95;;;31.30;83.30;;;;;;4194371;28;20111;-67
2022/02/10 10:07:23;;;;;;;;;;;31.30;83.50;;;;;;4194111;28;20044;-67
2022/02/10 10:09:36;;;;;;;;;;;31.30;83.70;;;;;;4180827;28;19956;-67
2022/02/10 10:14:10;;;;;;;20.23;16.17;;;31.30;83.90;;;;;;4188605;28;20054;-66
2022/02/10 10:18:52;;;;;;;20.42;15.68;;;31.20;83.90;;;;;;4185572;28;20050;-67
2022/02/10 10:44:33;;;;;;;22.75;18.00;;;31.10;85.30;;;;;;4192226;28;20040;-67
2022/02/10 10:50:00;;;;;;;27.83;19.52;;;30.80;88.10;;;;;;4193765;28;20058;-67
2022/02/10 10:56:33;;;;;;;33.90;22.52;;;30.60;89.40;;;;;;4197061;28;20044;-64
2022/02/10 11:01:11;;;;;;;36.80;22.50;;;30.60;90.00;;;;;;4189659;28;20478;-65
2022/02/10 11:38:40;;;;;;;55.63;33.00;;;30.00;91.80;;;;;;4197503;28;20349;-66
2022/02/10 11:46:11;;;;;;;74.28;53.85;;;29.90;92.00;;;;;;4195763;28;20048;-66
2022/02/10 14:09:29;;;;;;;65.70;44.33;;;28.60;94.00;;;;;;4192192;28;20055;-66
2022/02/10 14:13:57;;;;;;;76.53;45.53;;;28.50;94.00;;;;;;4193422;28;20869;-66
2022/02/10 14:16:16;;;;;;;69.88;46.58;;;28.40;94.20;;;;;;4192482;28;20045;-67
2022/02/10 14:18:27;;;;;;;58.40;43.28;;;28.40;94.20;;;;;;4192768;28;20558;-66
2022/02/10 14:22:51;;;;;;;66.32;44.80;;;28.40;94.30;;;;;;4192700;28;20297;-67
2022/02/10 14:27:13;;;;;;;63.38;43.60;;;28.40;94.50;;;;;;4193535;28;20049;-67
2022/02/10 14:29:18;;;;;;;63.47;42.88;;;28.40;94.50;;;;;;4190550;28;20148;-67
2022/02/10 14:31:22;;;;;;;58.15;41.38;;;28.20;94.80;;;;;;4181110;28;20053;-66
2022/02/10 14:33:29;;;;;;;62.38;41.92;;;28.10;95.10;;;;;;4186771;28;20044;-66
2022/02/10 14:35:49;;;;;;;66.85;41.75;;;28.10;95.00;;;;;;4197433;28;20445;-66
2022/02/10 16:19:05;;;;;;;50.10;36.22;;;28.00;95.50;;;;;;4197172;28;20048;-67
2022/02/10 16:21:11;;;;;;;49.00;35.13;;;28.10;95.50;;;;;;4197097;28;20123;-66
2022/02/10 16:23:17;;;;;;;49.25;35.25;;;28.00;95.50;;;;;;4197230;28;20040;-67
2022/02/10 16:25:25;;;;;;;48.70;34.47;;;28.00;95.60;;;;;;4197055;28;20283;-67
2022/02/10 16:27:56;;;;;;;51.22;34.95;;;28.00;95.70;;;;;;4196740;28;20792;-67
2022/02/10 16:30:08;;;;;;;45.65;34.38;;;28.00;95.80;;;;;;4197231;28;20119;-66
2022/02/10 16:32:17;;;;;;;51.15;34.95;;;28.00;95.90;;;;;;4197034;28;20044;-67
2022/02/10 16:34:26;;;;;;;49.42;36.38;;;28.00;95.80;;;;;;4197069;28;20094;-67
2022/02/10 16:36:35;;;;;;;55.38;36.42;;;28.00;96.00;;;;;;4196914;28;20041;-67
2022/02/10 16:38:45;;;;;;;47.22;34.83;;;28.00;96.10;;;;;;4196412;28;20045;-67
2022/02/10 16:40:57;;;;;;;48.67;35.38;;;28.00;96.20;;;;;;4196818;28;20124;-67
2022/02/10 16:43:07;;;;;;;51.20;35.40;;;28.00;96.30;;;;;;4196959;28;20051;-67
2022/02/10 16:45:20;;;;;;;49.90;36.05;;;28.00;96.40;;;;;;4196682;28;20460;-66
2022/02/10 16:47:29;;;;;;;52.83;36.40;;;27.90;96.30;;;;;;4196740;28;20124;-67
2022/02/10 16:49:44;;;;;;;49.35;37.65;;;27.90;96.20;;;;;;4195893;28;20498;-65
2022/02/10 16:51:54;;;;;;;47.97;36.58;;;27.90;96.30;;;;;;4196537;28;20057;-65
2022/02/10 16:54:15;;;;;;;54.47;38.42;;;27.90;96.20;;;;;;4196833;28;20383;-66
2022/02/10 16:56:33;;;;;;;50.58;38.08;;;27.90;96.20;;;;;;4196839;28;20410;-65
2022/02/10 16:58:54;;;;;;;50.95;37.28;;;28.00;96.20;;;;;;4196434;28;20466;-66
2022/02/10 17:03:27;;;;;;;52.80;36.95;;;27.90;96.20;;;;;;4196435;28;20159;-66
2022/02/10 17:05:53;;;;;;;53.83;38.20;;;27.90;96.30;;;;;;4196442;28;20050;-65
2022/02/10 17:19:31;;;;;;;57.47;38.20;;;27.90;96.50;;;;;;4195838;28;20040;-66
2022/02/10 17:28:19;;;;;;;58.58;39.38;;;27.90;96.70;;;;;;4196297;28;20098;-66
2022/02/10 17:42:06;;;;;;;53.08;39.45;;;27.80;97.20;;;;;;4195842;28;20747;-66
2022/02/10 17:46:24;;;;;;;60.80;39.13;;;27.80;97.20;;;;;;4195924;28;20136;-66
2022/02/10 17:53:11;;;;;;;53.30;39.20;;;27.80;97.40;;;;;;4195967;28;20076;-66
2022/02/10 17:55:18;;;;;;;57.10;41.03;;;27.70;97.40;;;;;;4195907;28;20052;-66
2022/02/10 17:57:25;;;;;;;62.67;42.30;;;27.70;97.40;;;;;;4195849;28;20049;-66
2022/02/10 17:59:33;;;;;;;64.90;41.97;;;27.70;97.50;;;;;;4195715;28;20128;-66
2022/02/10 18:01:38;;;;;;;67.47;43.28;;;27.70;97.50;;;;;;4196273;28;20068;-66
2022/02/10 18:03:47;;;;;;;61.95;41.35;;;27.70;97.60;;;;;;4201453;28;20074;-65
2022/02/10 18:08:20;;;;;;;64.20;42.45;;;27.70;97.70;;;;;;4201348;28;20088;-66
2022/02/10 18:11:14;;;;;;;60.88;42.47;;;27.70;97.70;;;;;;4201376;28;20052;-66
2022/02/10 18:15:20;;;;;;;67.72;43.65;;;27.70;98.00;;;;;;4200001;28;20052;-66
2022/02/10 18:17:32;;;;;;;63.55;42.08;;;27.70;97.80;;;;;;4184524;28;20044;-66
2022/02/10 18:29:01;;;;;;;65.18;43.30;;;27.60;97.90;;;;;;4201311;28;20052;-66
2022/02/10 19:07:54;;;;;;;69.78;49.53;;;27.50;99.30;;;;;;4201127;28;20049;-65
2022/02/10 19:10:02;;;;;;;67.25;50.80;;;27.50;99.30;;;;;;4200841;28;20041;-66
2022/02/10 19:12:15;;;;;;;72.07;49.55;;;27.40;99.30;;;;;;4200817;28;20106;-66
2022/02/10 19:14:19;;;;;;;70.50;49.78;;;27.40;99.30;;;;;;4197334;28;20514;-66
2022/02/10 19:16:25;;;;;;;64.82;48.83;;;27.30;99.30;;;;;;4198280;28;20041;-66
2022/02/10 19:18:29;;;;;;;71.45;49.50;;;27.40;99.30;;;;;;4198187;28;20044;-66
2022/02/10 19:20:34;;;;;;;73.18;48.25;;;27.40;99.20;;;;;;4198216;28;20048;-66
2022/02/10 19:22:40;;;;;;;71.57;48.35;;;27.40;99.10;;;;;;4198199;28;20102;-66
2022/02/10 19:24:45;;;;;;;66.47;47.85;;;27.40;99.10;;;;;;4197764;28;20044;-66
2022/02/10 19:26:52;;;;;;;65.05;46.67;;;27.40;99.00;;;;;;4196432;28;20625;-66
2022/02/10 19:28:57;;;;;;;66.07;47.72;;;27.40;98.90;;;;;;4198077;28;20132;-65
2022/02/10 19:31:05;;;;;;;66.97;47.42;;;27.40;98.90;;;;;;4197847;28;20086;-66
2022/02/10 19:33:13;;;;;;;68.80;45.92;;;27.40;98.90;;;;;;4197838;28;20048;-66
2022/02/10 19:35:20;;;;;;;65.55;47.17;;;27.40;99.00;;;;;;4197511;28;20077;-66
2022/02/10 19:37:26;;;;;;;69.00;46.67;;;27.40;99.00;;;;;;4197582;28;20121;-65
2022/02/10 19:39:32;;;;;;;60.22;46.35;;;27.40;99.10;;;;;;4197651;28;20045;-66
2022/02/10 19:41:41;;;;;;;64.85;47.80;;;27.40;99.10;;;;;;4197745;28;20510;-65
2022/02/10 19:43:47;;;;;;;72.25;53.20;;;27.30;99.20;;;;;;4197895;28;20040;-66
2022/02/10 19:45:52;;;;;;;74.70;54.33;;;27.30;99.40;;;;;;4197618;28;20044;-66
2022/02/10 19:47:56;;;;;;;78.55;55.67;;;27.30;99.30;;;;;;4197422;28;20375;-66
2022/02/10 19:50:08;;;;;;;70.75;56.47;;;27.30;99.30;;;;;;4197684;28;20044;-66
2022/02/10 19:52:14;;;;;;;71.25;54.05;;;27.30;99.30;;;;;;4197798;28;20549;-66
2022/02/10 19:54:25;;;;;;;73.18;53.38;;;27.30;99.20;;;;;;4197674;28;20068;-66
2022/02/10 19:56:31;;;;;;;65.63;47.88;;;27.30;99.40;;;;;;4197212;28;20075;-66
2022/02/10 19:58:35;;;;;;;68.03;49.97;;;27.30;99.50;;;;;;4197572;28;20051;-66
2022/02/10 20:00:44;;;;;;;68.80;48.78;;;27.20;99.70;;;;;;4197228;28;20057;-66
2022/02/10 20:02:49;;;;;;;66.18;47.47;;;27.20;99.70;;;;;;4197456;28;20048;-66
2022/02/10 20:04:55;;;;;;;66.50;48.42;;;27.20;99.70;;;;;;4197385;28;20044;-66
2022/02/10 20:07:00;;;;;;;66.70;47.65;;;27.20;99.70;;;;;;4197234;28;20090;-65
2022/02/10 20:09:05;;;;;;;62.58;46.88;;;27.30;99.80;;;;;;4197355;28;20106;-66
2022/02/10 20:11:11;;;;;;;63.30;47.10;;;27.20;99.80;;;;;;4197391;28;20098;-65
2022/02/10 20:13:16;;;;;;;60.97;46.65;;;27.20;99.90;;;;;;4197286;28;20048;-66
2022/02/10 20:15:22;;;;;;;63.90;47.22;;;27.20;99.90;;;;;;4197134;28;20135;-66
2022/02/10 20:17:28;;;;;;;71.03;48.42;;;27.20;99.90;;;;;;4197083;28;20066;-66
2022/02/10 20:19:43;;;;;;;62.90;47.13;;;27.20;99.90;;;;;;4197186;28;20055;-65
2022/02/10 20:21:49;;;;;;;64.40;47.42;;;27.20;99.90;;;;;;4197235;28;20044;-66
2022/02/10 20:23:54;;;;;;;66.30;48.00;;;27.10;99.90;;;;;;4197114;28;20053;-66
2022/02/10 20:26:00;;;;;;;61.13;46.97;;;27.10;99.90;;;;;;4195834;28;20076;-66
2022/02/10 20:28:09;;;;;;;64.07;47.65;;;27.10;99.90;;;;;;4196994;28;20123;-66
2022/02/10 20:30:14;;;;;;;65.95;48.92;;;27.10;99.90;;;;;;4196910;28;20048;-66
2022/02/10 20:32:21;;;;;;;64.57;47.22;;;27.20;99.90;;;;;;4196745;28;20059;-66
2022/02/10 20:34:29;;;;;;;68.35;48.60;;;27.10;99.90;;;;;;4196518;28;20041;-68
2022/02/10 20:36:34;;;;;;;65.97;49.13;;;27.10;99.90;;;;;;4196930;28;20086;-66
2022/02/10 20:38:43;;;;;;;66.80;49.83;;;27.00;99.90;;;;;;4196569;28;20388;-66
2022/02/10 20:40:56;;;;;;;69.57;50.92;;;27.00;99.90;;;;;;4196502;28;20045;-67
2022/02/10 20:43:07;;;;;;;72.20;49.38;;;26.90;99.90;;;;;;4196504;28;20109;-66
2022/02/10 20:45:11;;;;;;;74.47;50.40;;;26.60;99.90;;;;;;4195201;28;20435;-65
2022/02/10 20:47:18;;;;;;;80.70;52.05;;;26.60;99.90;;;;;;4196480;28;20044;-66
2022/02/10 20:49:27;;;;;;;72.93;51.42;;;26.70;99.90;;;;;;4196423;28;20880;-66
2022/02/10 20:51:31;;;;;;;80.47;53.38;;;26.80;99.90;;;;;;4196745;28;20056;-66
2022/02/10 20:53:37;;;;;;;75.75;52.35;;;26.80;99.90;;;;;;4182987;28;20079;-66
2022/02/10 20:55:42;;;;;;;78.60;51.05;;;26.90;99.90;;;;;;4178924;28;20053;-65
2022/02/10 20:57:47;;;;;;;69.50;49.17;;;26.80;99.90;;;;;;4180226;28;20037;-66
2022/02/10 20:59:53;;;;;;;75.40;50.88;;;26.90;99.90;;;;;;4186878;28;20483;-66
2022/02/10 21:02:04;;;;;;;71.22;49.20;;;26.90;99.90;;;;;;4196727;28;20037;-66
2022/02/10 21:04:10;;;;;;;75.10;52.90;;;26.90;99.90;;;;;;4196724;28;20503;-66
2022/02/10 21:10:42;;;;;;;78.75;56.05;;;26.90;99.90;;;;;;4195755;28;20056;-66
2022/02/10 21:12:47;;;;;;;72.03;51.50;;;26.90;99.90;;;;;;4196366;28;20040;-66
2022/02/10 21:14:52;;;;;;;75.43;53.00;;;27.00;99.90;;;;;;4196400;28;20155;-66
2022/02/10 21:16:58;;;;;;;71.95;50.58;;;27.00;99.90;;;;;;4196296;28;20044;-66
2022/02/10 21:19:03;;;;;;;72.63;48.75;;;27.00;99.90;;;;;;4196468;28;20041;-66
2022/02/10 21:21:12;;;;;;;62.03;46.78;;;27.00;99.90;;;;;;4195802;28;20032;-66
2022/02/10 21:23:29;;;;;;;67.53;48.28;;;27.00;99.90;;;;;;4196341;28;20105;-66
2022/02/10 21:25:38;;;;;;;66.45;49.08;;;27.00;99.90;;;;;;4195912;28;20048;-66
2022/02/10 21:27:48;;;;;;;68.88;47.72;;;26.90;99.90;;;;;;4196251;28;20048;-66
2022/02/10 21:29:59;;;;;;;60.63;46.25;;;27.00;99.90;;;;;;4196058;28;20554;-66
2022/02/10 21:32:04;;;;;;;69.85;48.42;;;26.90;99.90;;;;;;4194284;28;20453;-66
2022/02/10 21:34:15;;;;;;;63.17;46.30;;;26.90;99.90;;;;;;4194956;28;20499;-66
2022/02/10 21:38:42;;;;;;;60.75;46.60;;;26.90;99.90;;;;;;4196371;28;20042;-66
2022/02/10 21:44:02;;;;;;;58.80;45.45;;;26.90;99.90;;;;;;4195190;28;20123;-66
2022/02/10 21:59:10;;;;;;;57.33;43.13;;;26.80;99.90;;;;;;4196004;28;20128;-66
2022/02/10 22:21:07;;;;;;;60.08;47.30;;;26.70;99.90;;;;;;4179073;28;20115;-65
2022/02/10 22:23:21;;;;;;;59.65;46.45;;;26.70;99.90;;;;;;4184963;28;20124;-67
2022/02/10 22:25:26;;;;;;;56.53;46.08;;;26.60;99.90;;;;;;4195433;28;20049;-65
2022/02/10 22:27:34;;;;;;;57.75;47.55;;;26.60;99.90;;;;;;4195538;28;20148;-66
2022/02/10 22:29:46;;;;;;;54.03;43.60;;;26.50;99.90;;;;;;4195450;28;20706;-66
2022/02/10 22:36:12;;;;;;;59.17;43.13;;;26.50;99.90;;;;;;4195429;28;20067;-65
2022/02/10 22:38:21;;;;;;;57.65;44.25;;;26.50;99.90;;;;;;4195654;28;20131;-65
2022/02/10 22:42:42;;;;;;;55.75;44.72;;;26.60;99.90;;;;;;4195224;28;20639;-65
2022/02/10 22:44:47;;;;;;;62.15;49.35;;;26.60;99.90;;;;;;4195517;28;20068;-65
2022/02/10 22:46:51;;;;;;;69.10;52.40;;;26.60;99.90;;;;;;4195724;28;20397;-66
2022/02/10 22:48:55;;;;;;;74.03;55.92;;;26.60;99.90;;;;;;4196995;28;20040;-66
2022/02/10 22:51:00;;;;;;;69.75;55.83;;;26.60;99.90;;;;;;4198742;28;20044;-66
2022/02/10 22:53:09;;;;;;;74.18;58.95;;;26.50;99.90;;;;;;4198761;28;20059;-66
2022/02/10 22:55:13;;;;;;;68.75;55.50;;;26.50;99.90;;;;;;4198840;28;20046;-65
2022/02/10 22:57:17;;;;;;;66.05;54.75;;;26.50;99.90;;;;;;4198924;28;20049;-66
2022/02/10 22:59:22;;;;;;;65.97;56.50;;;26.50;99.90;;;;;;4198160;28;20820;-66
2022/02/10 23:01:27;;;;;;;65.43;51.50;;;26.50;99.90;;;;;;4198215;28;20456;-65
2022/02/10 23:03:32;;;;;;;73.72;50.78;;;26.40;99.90;;;;;;4198239;28;20501;-65
2022/02/10 23:05:38;;;;;;;67.35;49.03;;;26.40;99.90;;;;;;4198476;28;20047;-65
2022/02/10 23:07:42;;;;;;;61.92;48.47;;;26.40;99.90;;;;;;4198529;28;20036;-66
2022/02/10 23:09:53;;;;;;;63.70;48.28;;;26.40;99.90;;;;;;4198378;28;20687;-65
2022/02/10 23:12:00;;;;;;;56.95;47.38;;;26.40;99.90;;;;;;4198108;28;20056;-65
2022/02/10 23:14:05;;;;;;;60.75;48.40;;;26.40;99.90;;;;;;4198230;28;20080;-65
2022/02/10 23:16:09;;;;;;;58.55;46.58;;;26.40;99.90;;;;;;4197709;28;20566;-66
2022/02/10 23:18:17;;;;;;;53.47;45.92;;;26.50;99.90;;;;;;4198134;28;20040;-66
2022/02/10 23:20:24;;;;;;;60.70;45.53;;;26.40;99.90;;;;;;4192529;28;20669;-66
2022/02/10 23:22:28;;;;;;;56.78;44.42;;;26.50;99.90;;;;;;4192179;28;20116;-66
2022/02/10 23:24:33;;;;;;;55.42;44.00;;;26.50;99.90;;;;;;4195714;28;20067;-66
2022/02/10 23:26:38;;;;;;;60.35;44.38;;;26.40;99.90;;;;;;4194713;28;20131;-66
2022/02/10 23:28:45;;;;;;;56.28;44.97;;;26.40;99.90;;;;;;4195693;28;20446;-66
2022/02/10 23:30:55;;;;;;;61.58;47.55;;;26.40;99.90;;;;;;4194961;28;20049;-65
2022/02/10 23:33:10;;;;;;;62.60;47.60;;;26.40;99.90;;;;;;4194882;28;20592;-65
2022/02/10 23:36:01;;;;;;;59.17;45.97;;;26.40;99.90;;;;;;4191600;28;20425;-66
2022/02/10 23:37:40;;;;;;;65.68;51.35;;;26.40;99.90;;;;;;4192924;28;20577;-68
2022/02/10 23:39:46;;;;;;;81.97;57.35;;;26.40;99.90;;;;;;4187413;28;20056;-65
2022/02/10 23:42:03;;;;;;;77.63;57.97;;;26.40;99.90;;;;;;4195339;28;20128;-65
2022/02/10 23:44:15;;;;;;;96.90;74.38;;;26.40;99.90;;;;;;4197372;28;20123;-66
2022/02/10 23:46:21;;;;;;;83.15;68.40;;;26.40;99.90;;;;;;4197654;28;20502;-66
2022/02/10 23:48:28;;;;;;;92.00;72.80;;;26.30;99.90;;;;;;4197406;28;20060;-66
2022/02/10 23:50:35;;;;;;;92.82;74.97;;;26.30;99.90;;;;;;4197679;28;20099;-66
2022/02/10 23:52:41;;;;;;;92.85;71.35;;;26.40;99.90;;;;;;4197295;28;20375;-66
2022/02/10 23:54:49;;;;;;;76.40;62.83;;;26.40;99.90;;;;;;4196915;28;20051;-67
2022/02/10 23:57:03;;;;;;;75.72;61.63;;;26.40;99.90;;;;;;4201547;28;20056;-67
2022/02/10 23:59:18;;;;;;;80.53;62.63;;;26.30;99.90;;;;;;4192346;28;20398;-67
